Dripping Springs' Hourly Summary for Tuesday, July 10, 2018
Hour Temp
(f)
RH
(%)
Solar Rad.
(MJ/m2)
Rainfall
(in)
Wind
(mph)
7/10/2018 12:00 AM 73 90 0 0 2.24
7/10/2018 1:00 AM 72 93 0 0 2.24
7/10/2018 2:00 AM 71 97 0 0 1.68
7/10/2018 3:00 AM 71 97 0 0 0.79
7/10/2018 4:00 AM 72 98 0 0 0.79
7/10/2018 5:00 AM 0 0 0 0 0
7/10/2018 6:00 AM 73 97 0.01 0 0.41
7/10/2018 7:00 AM 73 97 0.32 0 0.74
7/10/2018 8:00 AM 75 96 0.81 0 3.35
7/10/2018 9:00 AM 78 84 1.56 0 3.92
7/10/2018 10:00 AM 81 72 2.27 0 4.35
7/10/2018 11:00 AM 83 59 2.83 0 4.35
7/10/2018 12:00 PM 86 57 3.14 0 4.37
7/10/2018 1:00 PM 87 52 3.14 0 4.72
7/10/2018 2:00 PM 89 48 3.31 0 5.86
7/10/2018 3:00 PM 89 45 3.31 0 5.86
7/10/2018 4:00 PM 90 44 2.06 0 6.14
7/10/2018 5:00 PM 90 43 1.77 0 6.26
7/10/2018 6:00 PM 90 39 1.25 0 6.26
7/10/2018 7:00 PM 90 42 0.78 0 5.28
7/10/2018 8:00 PM 89 48 0.52 0 5.06
7/10/2018 9:00 PM 85 58 0.07 0 2.44
7/10/2018 10:00 PM 82 65 0 0 2.57
7/10/2018 11:00 PM 80 74 0 0 3.57
Data Summary 77 66 27.15 0.00 3.47